Time;durP1;ratioP1;P1;durP2;ratioP2;P2;SDS_P1;SDS_P2;PMS_P1;PMS_P2;Temp;Humidity;BMP_temperature;BMP_pressure;BME280_temperature;BME280_humidity;BME280_pressure;Samples;Min_cycle;Max_cycle;Signal;HPM_P1;HPM_P2
2022/05/28 00:01:23;;;;;;;6.00;2.63;;;;;;;14.91;75.40;100733.22;5025080;28;20266;-76
2022/05/28 00:03:53;;;;;;;6.90;2.73;;;;;;;14.88;75.28;100735.94;5017731;28;20245;-77
2022/05/28 00:06:22;;;;;;;6.13;2.07;;;;;;;14.84;74.64;100722.97;5023379;28;20971;-75
2022/05/28 00:08:48;;;;;;;7.33;2.50;;;;;;;14.79;73.85;100728.28;5023270;28;21114;-76
2022/05/28 00:11:21;;;;;;;7.30;2.60;;;;;;;14.75;73.98;100730.09;5026805;28;20178;-76
2022/05/28 00:13:48;;;;;;;6.30;2.60;;;;;;;14.72;74.36;100727.53;5024485;28;20721;-76
2022/05/28 00:16:14;;;;;;;4.37;2.40;;;;;;;14.72;74.15;100734.50;5022620;28;20706;-76
2022/05/28 00:18:40;;;;;;;7.07;2.57;;;;;;;14.66;73.69;100739.78;5023337;28;20266;-76
2022/05/28 00:21:06;;;;;;;7.53;2.60;;;;;;;14.62;73.62;100734.63;5022835;28;20645;-75
2022/05/28 00:23:32;;;;;;;6.23;2.57;;;;;;;14.59;73.66;100737.31;5023860;28;20281;-76
2022/05/28 00:25:57;;;;;;;6.67;2.30;;;;;;;14.54;73.93;100738.25;5025164;28;20278;-76
2022/05/28 00:28:22;;;;;;;6.13;2.80;;;;;;;14.52;74.52;100743.50;5025848;28;20673;-75
2022/05/28 00:30:48;;;;;;;5.43;2.13;;;;;;;14.48;74.60;100734.03;5023683;28;20240;-75
2022/05/28 00:33:14;;;;;;;7.60;2.60;;;;;;;14.46;74.88;100741.00;5026991;28;20214;-75
2022/05/28 00:35:40;;;;;;;7.27;2.40;;;;;;;14.46;74.91;100739.28;5026003;28;20341;-75
2022/05/28 00:38:05;;;;;;;5.93;2.00;;;;;;;14.40;75.07;100743.72;5022973;28;20206;-76
2022/05/28 00:40:31;;;;;;;6.83;2.27;;;;;;;14.35;74.91;100737.72;5025697;28;20216;-75
2022/05/28 00:42:58;;;;;;;7.80;2.80;;;;;;;14.29;74.80;100739.53;5025242;28;20353;-75
2022/05/28 00:45:23;;;;;;;9.13;2.17;;;;;;;14.23;75.55;100741.41;5024470;28;20200;-75
2022/05/28 00:47:53;;;;;;;7.27;2.07;;;;;;;14.17;74.88;100744.97;5025616;28;20197;-75
2022/05/28 00:50:19;;;;;;;4.23;2.07;;;;;;;14.14;75.79;100756.28;5024394;28;20202;-75
2022/05/28 00:52:45;;;;;;;5.37;2.57;;;;;;;14.16;75.86;100745.84;5034409;28;20185;-75
2022/05/28 00:55:12;;;;;;;6.20;2.30;;;;;;;14.12;76.43;100741.59;5026638;28;20213;-75
2022/05/28 00:57:40;;;;;;;4.70;2.40;;;;;;;14.11;75.80;100747.69;5021582;28;20663;-75
2022/05/28 01:00:10;;;;;;;3.80;2.10;;;;;;;14.07;76.22;100743.41;5015097;28;20189;-75
2022/05/28 01:02:56;;;;;;;5.77;2.20;;;;;;;14.05;76.57;100747.78;5021426;28;20784;-75
2022/05/28 01:05:40;;;;;;;5.43;2.10;;;;;;;14.02;76.60;100751.28;5019814;28;20549;-75
2022/05/28 01:08:15;;;;;;;4.93;2.30;;;;;;;13.96;76.13;100743.56;5024733;28;20220;-74
2022/05/28 01:10:46;;;;;;;8.77;2.73;;;;;;;13.90;76.43;100747.13;5026391;28;20226;-75
2022/05/28 01:13:20;;;;;;;5.50;2.10;;;;;;;13.86;76.61;100750.66;5025592;28;20192;-75
2022/05/28 01:16:09;;;;;;;6.97;2.37;;;;;;;13.84;76.14;100750.69;5027543;28;20577;-74
2022/05/28 01:18:50;;;;;;;5.97;2.67;;;;;;;13.77;76.37;100746.44;5019907;28;20225;-75
2022/05/28 01:21:33;;;;;;;6.93;2.50;;;;;;;13.75;76.49;100750.84;5024705;28;20192;-74
2022/05/28 01:24:14;;;;;;;4.43;2.07;;;;;;;13.65;77.29;100751.84;5027708;28;20223;-75
2022/05/28 01:27:00;;;;;;;9.00;2.70;;;;;;;13.62;77.38;100763.16;5027692;28;20199;-76
2022/05/28 01:29:34;;;;;;;7.20;2.33;;;;;;;13.61;77.67;100757.97;5026229;28;20216;-76
2022/05/28 01:32:01;;;;;;;7.67;2.57;;;;;;;13.55;76.98;100762.38;5026770;28;20184;-77
2022/05/28 01:34:30;;;;;;;4.47;2.33;;;;;;;13.53;77.26;100761.53;5026786;28;20205;-75
2022/05/28 01:36:58;;;;;;;4.20;2.17;;;;;;;13.52;77.34;100761.56;5023981;28;20243;-75
2022/05/28 01:39:24;;;;;;;6.07;2.73;;;;;;;13.50;78.16;100765.91;5028149;28;20214;-74
2022/05/28 01:41:51;;;;;;;6.77;2.47;;;;;;;13.50;77.94;100761.56;5026986;28;20219;-74
2022/05/28 01:44:18;;;;;;;5.67;2.43;;;;;;;13.49;78.74;100765.03;5028585;28;20671;-75
2022/05/28 01:46:47;;;;;;;5.77;2.13;;;;;;;13.50;79.01;100768.53;5025522;28;20302;-76
2022/05/28 01:49:16;;;;;;;3.63;2.10;;;;;;;13.51;78.86;100762.44;5024592;28;20293;-76
2022/05/28 01:51:52;;;;;;;4.07;2.40;;;;;;;13.47;78.96;100766.81;5026052;28;20201;-76
2022/05/28 01:54:20;;;;;;;3.63;1.80;;;;;;;13.40;78.99;100772.97;5023132;28;20215;-75
2022/05/28 01:56:50;;;;;;;4.07;2.10;;;;;;;13.35;79.37;100766.94;5035092;28;20188;-75
2022/05/28 01:59:25;;;;;;;4.57;1.83;;;;;;;13.29;79.60;100769.63;5028070;28;20283;-76
2022/05/28 02:01:51;;;;;;;2.13;1.67;;;;;;;13.23;79.98;100768.81;5028278;28;20212;-76
2022/05/28 02:04:17;;;;;;;5.70;2.10;;;;;;;13.17;79.98;100755.88;5028727;28;20957;-75
2022/05/28 02:06:43;;;;;;;4.77;2.20;;;;;;;13.13;80.14;100759.41;5027185;28;20233;-75
2022/05/28 02:09:12;;;;;;;5.57;2.40;;;;;;;13.10;80.34;100752.50;5027756;28;21016;-75
2022/05/28 02:12:02;;;;;;;4.80;2.00;;;;;;;13.04;80.73;100756.91;5039799;28;20685;-74
2022/05/28 02:14:36;;;;;;;7.67;2.47;;;;;;;12.96;81.13;100757.00;5023444;28;20670;-75
2022/05/28 02:17:09;;;;;;;4.67;2.30;;;;;;;12.89;81.43;100751.00;5029136;28;20717;-75
2022/05/28 02:19:50;;;;;;;4.60;2.23;;;;;;;12.84;81.68;100754.53;5031005;28;20226;-75
2022/05/28 02:22:33;;;;;;;3.63;1.87;;;;;;;12.79;81.85;100755.44;5022947;28;20266;-76
2022/05/28 02:25:06;;;;;;;4.13;2.10;;;;;;;12.79;82.00;100755.44;5024159;28;20710;-75
2022/05/28 02:27:33;;;;;;;3.07;1.80;;;;;;;12.78;81.83;100758.91;5021240;28;20197;-77
2022/05/28 02:30:00;;;;;;;4.13;1.77;;;;;;;12.78;81.56;100752.88;5022156;28;20188;-77
2022/05/28 02:32:26;;;;;;;5.27;1.87;;;;;;;12.77;81.62;100751.16;5027980;28;20195;-77
2022/05/28 02:34:51;;;;;;;5.77;2.30;;;;;;;12.79;81.32;100741.63;5026203;28;20715;-77
2022/05/28 02:37:21;;;;;;;5.60;2.23;;;;;;;12.79;81.01;100741.63;5028209;28;20216;-77
2022/05/28 02:39:48;;;;;;;4.53;2.00;;;;;;;12.77;81.17;100749.44;5028329;28;20216;-77
2022/05/28 02:42:16;;;;;;;3.53;1.77;;;;;;;12.76;81.24;100741.63;5023742;28;20559;-75
2022/05/28 02:44:42;;;;;;;3.83;1.87;;;;;;;12.76;81.00;100739.03;5025047;28;20227;-77
2022/05/28 02:47:07;;;;;;;4.53;1.90;;;;;;;12.75;80.82;100734.72;5027395;28;20671;-77
2022/05/28 02:49:33;;;;;;;5.57;1.93;;;;;;;12.73;80.78;100742.53;5025900;28;20227;-76
2022/05/28 02:52:06;;;;;;;5.60;2.10;;;;;;;12.70;81.01;100739.97;5029439;28;20180;-76
2022/05/28 02:54:32;;;;;;;5.03;2.23;;;;;;;12.69;81.13;100738.25;5022078;28;20199;-76
2022/05/28 02:56:58;;;;;;;4.17;1.70;;;;;;;12.68;81.14;100738.28;5023506;28;20193;-76
2022/05/28 02:59:23;;;;;;;4.07;2.03;;;;;;;12.67;81.06;100737.41;5024469;28;20614;-76
2022/05/28 03:01:50;;;;;;;4.90;1.90;;;;;;;12.64;81.01;100743.50;5054296;28;20266;-75
2022/05/28 03:04:16;;;;;;;4.47;2.27;;;;;;;12.57;81.29;100736.63;5019144;28;20193;-76
2022/05/28 03:06:41;;;;;;;4.03;1.87;;;;;;;12.55;81.70;100747.91;5023188;28;20179;-76
2022/05/28 03:09:08;;;;;;;3.67;1.87;;;;;;;12.52;81.89;100754.00;5020129;28;20228;-75
2022/05/28 03:11:35;;;;;;;6.03;2.13;;;;;;;12.49;82.12;100747.09;5023955;28;20181;-76
2022/05/28 03:14:01;;;;;;;5.33;1.93;;;;;;;12.46;82.34;100746.25;5027886;28;20742;-76
2022/05/28 03:16:26;;;;;;;3.70;1.50;;;;;;;12.41;82.68;100751.50;5024152;28;20286;-76
2022/05/28 03:18:52;;;;;;;5.03;2.07;;;;;;;12.35;83.21;100747.22;5023724;28;20212;-76
2022/05/28 03:21:18;;;;;;;4.80;1.90;;;;;;;12.32;83.67;100754.19;5025034;28;20243;-75
2022/05/28 03:23:50;;;;;;;3.70;2.07;;;;;;;12.30;83.76;100753.34;5027391;28;20243;-75
2022/05/28 03:26:21;;;;;;;4.57;1.63;;;;;;;12.27;83.38;100751.63;5027354;28;20717;-75
2022/05/28 03:28:49;;;;;;;3.90;1.67;;;;;;;12.24;83.48;100754.25;5023372;28;20207;-75
2022/05/28 03:31:15;;;;;;;4.83;1.87;;;;;;;12.24;83.45;100756.84;5025719;28;20183;-75
2022/05/28 03:33:41;;;;;;;4.47;1.70;;;;;;;12.20;83.36;100763.78;5025402;28;20528;-75
2022/05/28 03:36:07;;;;;;;4.07;1.70;;;;;;;12.16;82.47;100766.41;5026702;28;20187;-75
2022/05/28 03:38:33;;;;;;;3.80;1.70;;;;;;;12.09;81.72;100765.59;5023984;28;20212;-76
2022/05/28 03:40:59;;;;;;;2.73;1.50;;;;;;;12.06;80.98;100762.19;5026316;28;20572;-76
2022/05/28 03:43:28;;;;;;;2.83;1.50;;;;;;;12.05;81.12;100769.09;5024297;28;20203;-75
2022/05/28 03:45:54;;;;;;;3.00;1.00;;;;;;;12.03;80.70;100763.94;5020172;28;20211;-76
2022/05/28 03:48:20;;;;;;;4.03;1.50;;;;;;;12.02;80.23;100766.53;5021905;28;20203;-75
2022/05/28 03:50:45;;;;;;;3.40;1.33;;;;;;;12.02;80.18;100763.94;5034959;28;20272;-76
2022/05/28 03:53:11;;;;;;;2.47;1.20;;;;;;;12.05;79.85;100763.91;5025842;28;20241;-76
2022/05/28 03:55:37;;;;;;;2.17;1.50;;;;;;;12.07;79.60;100764.75;5023766;28;20192;-75
2022/05/28 03:58:03;;;;;;;3.33;1.50;;;;;;;12.07;79.30;100766.50;5019104;28;20200;-75
2022/05/28 04:00:29;;;;;;;3.77;1.43;;;;;;;12.06;79.27;100767.38;5021094;28;20571;-75
2022/05/28 04:02:54;;;;;;;3.07;1.40;;;;;;;12.04;79.19;100763.06;5023148;28;20211;-76
2022/05/28 04:05:19;;;;;;;3.87;1.60;;;;;;;12.02;79.08;100774.31;5021714;28;20238;-76
2022/05/28 04:07:45;;;;;;;2.50;1.03;;;;;;;12.01;79.23;100781.22;5021099;28;20185;-76
2022/05/28 04:10:10;;;;;;;5.80;1.70;;;;;;;12.04;79.30;100781.22;5023701;28;20184;-76
2022/05/28 04:12:36;;;;;;;4.23;1.50;;;;;;;12.10;79.51;100782.06;5027022;28;20267;-77
2022/05/28 04:15:01;;;;;;;2.83;1.20;;;;;;;12.28;78.99;100781.03;5024553;28;20282;-76
2022/05/28 04:17:26;;;;;;;3.30;1.27;;;;;;;12.41;78.79;100782.66;5022490;28;20226;-77
2022/05/28 04:19:52;;;;;;;3.03;1.20;;;;;;;12.57;78.75;100780.78;5022219;28;20718;-77
2022/05/28 04:22:18;;;;;;;2.23;1.17;;;;;;;13.23;77.73;100779.22;5018944;28;20227;-76
2022/05/28 04:24:43;;;;;;;1.77;0.93;;;;;;;14.42;75.23;100779.25;5018012;28;20202;-77
2022/05/28 04:27:09;;;;;;;2.53;1.27;;;;;;;15.54;72.35;100775.41;5024649;28;20195;-76
2022/05/28 04:29:34;;;;;;;2.67;1.20;;;;;;;16.41;69.91;100783.84;5022260;28;20217;-76
2022/05/28 04:32:00;;;;;;;3.17;1.07;;;;;;;16.72;69.28;100779.59;5024538;28;20625;-76
2022/05/28 04:34:25;;;;;;;3.00;0.90;;;;;;;17.09;68.55;100793.44;5017843;28;20674;-76
2022/05/28 04:36:51;;;;;;;1.17;0.90;;;;;;;17.13;68.15;100784.59;5026294;28;20234;-76
2022/05/28 04:39:16;;;;;;;2.43;1.10;;;;;;;17.14;68.60;100787.16;5017175;28;20205;-76
2022/05/28 04:41:42;;;;;;;2.53;1.00;;;;;;;17.65;68.32;100784.84;5023939;28;20192;-75
2022/05/28 04:44:07;;;;;;;2.30;1.10;;;;;;;17.77;68.09;100791.47;5028572;28;20597;-75
2022/05/28 04:46:33;;;;;;;2.73;1.30;;;;;;;17.43;69.35;100787.25;5030982;28;20694;-75
2022/05/28 04:48:58;;;;;;;3.60;1.47;;;;;;;17.26;69.97;100785.09;5025701;28;20276;-76
2022/05/28 04:51:24;;;;;;;2.67;1.50;;;;;;;17.21;70.26;100790.47;5027081;28;20188;-77
2022/05/28 04:53:49;;;;;;;1.53;1.00;;;;;;;17.46;70.13;100797.63;5029048;28;20203;-75
2022/05/28 04:56:14;;;;;;;2.13;1.23;;;;;;;17.73;69.72;100795.06;5022825;28;20207;-76
2022/05/28 04:58:42;;;;;;;2.30;1.27;;;;;;;17.89;69.67;100796.31;5027851;28;20205;-76
2022/05/28 05:01:12;;;;;;;1.80;0.90;;;;;;;17.78;69.94;100795.75;5031468;28;20176;-76
2022/05/28 05:03:37;;;;;;;1.90;0.83;;;;;;;17.53;70.77;100799.13;5029345;28;20750;-75
2022/05/28 05:06:02;;;;;;;1.30;1.00;;;;;;;17.65;71.24;100798.75;5035641;28;20178;-76
2022/05/28 05:08:31;;;;;;;1.90;1.10;;;;;;;18.58;69.29;100797.59;5027788;28;20222;-75
2022/05/28 05:10:57;;;;;;;2.00;1.10;;;;;;;19.01;68.58;100792.63;5028880;28;20188;-77
2022/05/28 05:13:22;;;;;;;2.17;1.10;;;;;;;19.57;67.43;100791.41;5027146;28;20207;-75
2022/05/28 05:15:48;;;;;;;3.40;1.60;;;;;;;19.93;65.97;100790.06;5020886;28;20190;-74
2022/05/28 05:18:14;;;;;;;4.00;1.57;;;;;;;19.95;64.38;100789.09;5024396;28;20311;-75
2022/05/28 05:20:39;;;;;;;2.73;1.33;;;;;;;20.16;64.20;100794.38;5030511;28;20198;-75
2022/05/28 05:23:05;;;;;;;2.50;1.30;;;;;;;20.92;62.40;100791.22;5028896;28;20217;-75
2022/05/28 05:25:31;;;;;;;4.43;1.40;;;;;;;21.56;60.35;100793.59;5027615;28;20187;-75
2022/05/28 05:27:57;;;;;;;2.80;1.30;;;;;;;21.61;59.72;100796.91;5028264;28;20217;-77
2022/05/28 05:30:22;;;;;;;2.60;1.40;;;;;;;21.68;59.50;100795.69;5032140;28;20645;-76
2022/05/28 05:32:48;;;;;;;3.70;1.37;;;;;;;22.25;57.70;100805.25;5031247;28;20737;-75
2022/05/28 05:35:13;;;;;;;5.10;1.93;;;;;;;22.47;56.97;100807.69;5024279;28;20195;-77
2022/05/28 05:37:39;;;;;;;2.97;1.30;;;;;;;22.42;56.87;100807.09;5025417;28;20190;-77
2022/05/28 05:40:05;;;;;;;2.63;1.40;;;;;;;22.72;57.16;100798.53;5024512;28;20273;-75
2022/05/28 05:42:30;;;;;;;3.50;1.53;;;;;;;23.31;55.91;100800.72;5019034;28;20212;-75
2022/05/28 05:44:56;;;;;;;4.50;1.70;;;;;;;23.92;54.43;100798.25;5025233;28;20191;-76
2022/05/28 05:47:21;;;;;;;3.67;2.00;;;;;;;24.24;53.15;100807.94;5025191;28;20270;-75
2022/05/28 05:49:46;;;;;;;5.13;1.80;;;;;;;24.41;52.96;100805.16;5024235;28;20222;-76
2022/05/28 05:52:12;;;;;;;3.77;1.70;;;;;;;24.74;53.14;100801.47;5028347;28;20270;-76
2022/05/28 05:54:37;;;;;;;4.50;1.60;;;;;;;25.06;52.73;100806.59;5041664;28;20180;-76
2022/05/28 05:57:03;;;;;;;4.07;1.73;;;;;;;25.66;51.73;100801.97;5030338;28;20234;-76
2022/05/28 05:59:29;;;;;;;3.60;1.70;;;;;;;25.66;51.30;100801.97;5029721;28;20208;-75
2022/05/28 06:01:54;;;;;;;3.20;1.67;;;;;;;25.54;51.21;100803.63;5026424;28;20231;-76
2022/05/28 06:04:20;;;;;;;2.83;1.50;;;;;;;25.53;51.52;100796.63;5025484;28;20564;-76
2022/05/28 06:06:45;;;;;;;6.20;1.87;;;;;;;25.29;50.85;100795.50;5025175;28;20183;-77
2022/05/28 06:09:14;;;;;;;3.40;1.80;;;;;;;24.65;50.61;100800.19;5020231;28;20222;-77
2022/05/28 06:11:39;;;;;;;3.10;1.60;;;;;;;24.53;51.19;100797.41;5024982;28;20230;-77
2022/05/28 06:14:04;;;;;;;4.67;1.73;;;;;;;25.06;51.24;100803.06;5025048;28;20620;-76
2022/05/28 06:16:30;;;;;;;4.40;1.83;;;;;;;25.53;50.30;100795.78;5021499;28;20192;-77
2022/05/28 06:18:56;;;;;;;2.47;1.50;;;;;;;26.05;49.69;100795.97;5029906;28;20278;-76
2022/05/28 06:21:22;;;;;;;3.93;1.60;;;;;;;26.52;48.66;100799.91;5026164;28;20240;-76
2022/05/28 06:23:47;;;;;;;4.70;1.70;;;;;;;26.78;47.33;100810.53;5023461;28;20205;-76
2022/05/28 06:26:13;;;;;;;3.37;1.60;;;;;;;26.84;47.09;100799.53;5026388;28;20175;-76
2022/05/28 06:28:40;;;;;;;4.87;1.53;;;;;;;26.98;47.36;100795.91;5025064;28;20570;-77
2022/05/28 06:31:12;;;;;;;5.43;1.87;;;;;;;26.80;47.78;100798.03;5036000;28;20187;-76
2022/05/28 06:33:39;;;;;;;3.47;1.80;;;;;;;26.84;48.35;100801.34;5029546;28;20188;-76
2022/05/28 06:36:08;;;;;;;3.30;1.37;;;;;;;27.11;48.07;100797.69;5028865;28;20651;-76
2022/05/28 06:38:34;;;;;;;3.30;1.47;;;;;;;27.28;48.00;100799.13;5033882;28;20223;-75
2022/05/28 06:41:00;;;;;;;3.17;1.40;;;;;;;27.12;47.54;100796.75;5026428;28;20972;-75
2022/05/28 06:43:26;;;;;;;2.90;1.40;;;;;;;26.75;47.23;100795.66;5027166;28;20210;-75
2022/05/28 06:45:52;;;;;;;2.10;1.27;;;;;;;26.50;47.57;100801.81;5027761;28;20194;-77
2022/05/28 06:48:18;;;;;;;4.37;1.80;;;;;;;26.46;47.62;100800.34;5018701;28;20200;-76
2022/05/28 06:51:01;;;;;;;3.60;1.30;;;;;;;26.53;47.63;100798.94;5034290;28;20237;-76
2022/05/28 06:53:32;;;;;;;2.90;1.50;;;;;;;26.66;46.70;100804.28;5021193;28;20176;-76
2022/05/28 06:55:57;;;;;;;2.87;1.30;;;;;;;26.42;47.28;100799.69;5027304;28;20187;-76
2022/05/28 06:58:23;;;;;;;6.10;1.73;;;;;;;26.31;46.71;100802.22;5023607;28;20203;-77
2022/05/28 07:00:48;;;;;;;3.23;1.70;;;;;;;26.16;47.18;100801.47;5026476;28;20183;-76
2022/05/28 07:03:17;;;;;;;2.70;1.40;;;;;;;26.22;47.21;100801.03;5028564;28;20203;-76
2022/05/28 07:05:42;;;;;;;2.77;1.60;;;;;;;26.43;46.37;100793.41;5026725;28;20603;-76
2022/05/28 07:08:08;;;;;;;3.87;1.70;;;;;;;26.40;46.43;100796.28;5026046;28;20199;-76
2022/05/28 07:10:38;;;;;;;4.30;1.70;;;;;;;26.31;46.94;100794.25;5026059;28;20567;-76
2022/05/28 07:13:05;;;;;;;2.97;1.50;;;;;;;26.35;47.75;100789.59;5025257;28;20184;-77
2022/05/28 07:15:30;;;;;;;3.50;1.47;;;;;;;26.20;47.67;100792.31;5024965;28;20187;-76
2022/05/28 07:17:55;;;;;;;4.07;2.17;;;;;;;26.17;47.38;100782.78;5024441;28;20209;-76
2022/05/28 07:20:21;;;;;;;2.93;1.60;;;;;;;26.38;46.92;100792.91;5020266;28;20205;-78
2022/05/28 07:22:46;;;;;;;4.60;1.70;;;;;;;26.39;46.83;100786.66;5024655;28;20318;-75
2022/05/28 07:25:12;;;;;;;3.20;1.33;;;;;;;26.34;46.87;100791.41;5030504;28;20187;-77
2022/05/28 07:27:37;;;;;;;2.10;1.27;;;;;;;26.26;47.60;100783.97;5021389;28;20703;-76
2022/05/28 07:30:03;;;;;;;3.13;1.23;;;;;;;26.21;47.50;100786.06;5021178;28;20620;-76
2022/05/28 07:32:30;;;;;;;4.73;1.73;;;;;;;26.06;47.33;100785.28;5024940;28;20179;-75
2022/05/28 07:34:59;;;;;;;3.87;1.50;;;;;;;26.00;47.39;100785.66;5019081;28;20609;-77
2022/05/28 07:37:25;;;;;;;1.73;0.97;;;;;;;25.95;47.50;100777.16;5025767;28;20275;-76
2022/05/28 07:39:51;;;;;;;3.00;1.30;;;;;;;25.76;48.29;100782.81;5023403;28;20282;-76
2022/05/28 07:42:16;;;;;;;2.47;1.20;;;;;;;25.42;48.50;100780.56;5022686;28;20203;-76
2022/05/28 07:44:41;;;;;;;2.40;1.17;;;;;;;25.11;48.83;100777.16;5020964;28;20187;-75
2022/05/28 07:47:07;;;;;;;3.77;1.10;;;;;;;24.94;49.29;100773.78;5023509;28;21889;-74
2022/05/28 07:49:35;;;;;;;2.10;1.10;;;;;;;25.05;49.44;100775.75;5029021;28;20253;-75
2022/05/28 07:52:02;;;;;;;2.30;1.30;;;;;;;25.25;49.29;100771.84;5031450;28;20187;-76
2022/05/28 07:54:27;;;;;;;2.40;1.10;;;;;;;25.30;49.32;100768.06;5025640;28;20188;-76
2022/05/28 07:56:53;;;;;;;3.60;1.30;;;;;;;25.25;49.30;100768.38;5024915;28;20183;-76
2022/05/28 07:59:19;;;;;;;3.10;1.57;;;;;;;25.04;49.21;100771.41;5029791;28;20627;-76
2022/05/28 08:01:44;;;;;;;3.90;1.83;;;;;;;24.63;47.85;100762.38;5023836;28;20194;-75
2022/05/28 08:04:10;;;;;;;4.30;1.40;;;;;;;24.09;48.91;100767.38;5024774;28;20191;-76
2022/05/28 08:06:37;;;;;;;2.90;1.40;;;;;;;23.79;49.97;100758.44;5026539;28;20222;-76
2022/05/28 08:09:05;;;;;;;3.57;1.47;;;;;;;23.57;50.24;100751.75;5027292;28;20301;-76
2022/05/28 08:11:30;;;;;;;3.63;1.70;;;;;;;23.13;49.91;100758.53;5026948;28;20241;-76
2022/05/28 08:13:56;;;;;;;2.40;1.40;;;;;;;22.83;50.22;100751.31;5026076;28;20184;-76
2022/05/28 08:16:21;;;;;;;3.80;1.33;;;;;;;22.48;50.84;100761.09;5024234;28;20653;-75
2022/05/28 08:18:48;;;;;;;2.97;1.37;;;;;;;21.77;51.35;100754.88;5023707;28;20208;-75
2022/05/28 08:23:58;;;;;;;5.30;1.40;;;;;;;21.35;52.32;100761.25;5020425;28;20209;-76
2022/05/28 08:26:24;;;;;;;2.37;1.40;;;;;;;21.35;52.38;100751.53;5023276;28;20195;-76
2022/05/28 08:28:51;;;;;;;4.43;1.80;;;;;;;21.33;52.82;100750.75;5017978;28;20210;-76
2022/05/28 08:31:18;;;;;;;2.70;1.60;;;;;;;20.95;52.98;100751.59;5024623;28;20190;-76
2022/05/28 08:33:44;;;;;;;4.47;1.30;;;;;;;;;;5022412;28;20197;-76
2022/05/28 08:36:10;;;;;;;2.93;1.33;;;;;;;20.97;53.84;100752.38;5022735;28;20176;-76
2022/05/28 08:38:37;;;;;;;3.67;1.40;;;;;;;21.20;54.42;100741.72;5019665;28;20681;-76
2022/05/28 08:41:08;;;;;;;2.67;1.30;;;;;;;21.39;54.12;100749.66;5026624;28;20256;-75
2022/05/28 08:43:42;;;;;;;16.90;3.07;;;;;;;21.47;54.04;100745.72;5009920;28;20211;-76
2022/05/28 08:46:12;;;;;;;5.07;1.70;;;;;;;21.31;53.64;100745.59;5020400;28;20325;-76
2022/05/28 08:48:49;;;;;;;31.40;5.20;;;;;;;21.17;53.74;100748.88;5023861;28;20195;-76
2022/05/28 08:51:23;;;;;;;29.07;5.23;;;;;;;21.01;53.40;100743.44;5024973;28;20244;-76
2022/05/28 08:54:00;;;;;;;4.23;1.60;;;;;;;20.93;53.24;100742.94;5023402;28;20638;-76
2022/05/28 08:56:27;;;;;;;5.13;1.20;;;;;;;20.62;53.40;100736.38;5020579;28;20186;-76
2022/05/28 08:59:12;;;;;;;3.60;1.43;;;;;;;20.83;53.93;100737.25;5020872;28;20581;-76
2022/05/28 09:01:40;;;;;;;2.47;1.10;;;;;;;21.04;53.56;100734.53;5023665;28;20242;-76
2022/05/28 09:04:16;;;;;;;3.17;1.30;;;;;;;21.10;53.55;100725.53;5024528;28;20204;-76
2022/05/28 09:06:49;;;;;;;6.87;1.60;;;;;;;21.21;54.05;100725.00;5023608;28;20174;-75
2022/05/28 09:09:16;;;;;;;40.03;6.87;;;;;;;21.42;54.11;100726.66;5026599;28;20213;-76
2022/05/28 09:12:01;;;;;;;10.80;3.30;;;;;;;21.81;54.69;100731.88;5023102;28;20195;-77
2022/05/28 09:14:36;;;;;;;4.07;1.60;;;;;;;21.88;54.45;100731.50;5024588;28;20563;-75
2022/05/28 09:17:32;;;;;;;4.57;1.70;;;;;;;21.91;54.62;100731.34;5017402;28;20211;-75
2022/05/28 09:20:20;;;;;;;94.07;15.63;;;;;;;22.00;54.51;100722.13;5021288;28;20206;-75
2022/05/28 09:22:46;;;;;;;68.60;14.80;;;;;;;22.18;55.09;100719.50;5020217;28;20218;-75
2022/05/28 09:25:14;;;;;;;68.13;12.63;;;;;;;22.31;53.94;100720.56;5026844;28;20186;-75
2022/05/28 09:27:59;;;;;;;30.33;7.43;;;;;;;22.38;54.64;100724.63;5019860;28;20261;-75
2022/05/28 09:30:57;;;;;;;7.27;2.30;;;;;;;22.28;54.11;100717.25;5026731;28;20241;-75
2022/05/28 09:33:42;;;;;;;2.97;1.40;;;;;;;22.19;54.42;100715.94;5021343;28;20195;-75
2022/05/28 09:36:27;;;;;;;2.20;1.00;;;;;;;22.22;54.05;100706.06;5028377;28;20263;-75
2022/05/28 09:39:03;;;;;;;2.43;1.10;;;;;;;22.30;54.29;100705.69;5023236;28;20199;-75
2022/05/28 09:41:47;;;;;;;5.80;1.43;;;;;;;22.57;54.41;100705.19;5026020;28;20187;-77
2022/05/28 09:44:37;;;;;;;16.67;3.10;;;;;;;22.77;53.98;100703.28;5027297;28;20575;-74
2022/05/28 09:47:11;;;;;;;6.07;2.40;;;;;;;22.90;53.75;100708.78;5023262;28;20225;-75
2022/05/28 09:49:52;;;;;;;4.67;1.27;;;;;;;22.96;53.75;100703.16;5026558;28;20238;-76
2022/05/28 09:52:25;;;;;;;2.37;1.10;;;;;;;23.05;53.97;100700.03;5023322;28;20774;-75
2022/05/28 09:54:51;;;;;;;1.57;0.90;;;;;;;23.01;53.51;100695.84;5025441;28;20184;-76
2022/05/28 09:57:21;;;;;;;2.07;1.33;;;;;;;22.95;53.48;100689.13;5023002;28;20801;-75
2022/05/28 09:59:55;;;;;;;3.73;1.30;;;;;;;22.93;53.76;100693.63;5027832;28;20778;-77
2022/05/28 10:02:21;;;;;;;2.90;1.30;;;;;;;22.92;53.64;100697.19;5025291;28;20291;-76
2022/05/28 10:05:00;;;;;;;3.60;1.10;;;;;;;22.68;52.96;100687.03;5022411;28;20282;-76
2022/05/28 10:07:42;;;;;;;1.73;0.97;;;;;;;22.53;53.56;100699.25;5042978;28;20612;-76
2022/05/28 10:10:22;;;;;;;1.50;0.90;;;;;;;22.45;54.11;100688.25;5026708;28;20619;-76
2022/05/28 10:12:47;;;;;;;2.90;0.90;;;;;;;22.41;54.06;100685.81;5026567;28;20282;-76
2022/05/28 10:15:20;;;;;;;2.37;1.07;;;;;;;22.34;54.37;100686.16;5027581;28;20996;-76
2022/05/28 10:17:59;;;;;;;2.07;0.80;;;;;;;22.23;53.91;100686.69;5026297;28;20183;-76
2022/05/28 10:20:25;;;;;;;2.70;0.90;;;;;;;22.14;53.95;100681.91;5022174;28;20680;-76
2022/05/28 10:22:54;;;;;;;3.00;1.17;;;;;;;22.07;54.07;100680.50;5021344;28;20207;-76
2022/05/28 10:25:46;;;;;;;5.90;1.57;;;;;;;21.88;53.62;100686.69;5024648;28;20218;-76
2022/05/28 10:28:12;;;;;;;3.73;1.90;;;;;;;21.57;53.59;100675.00;5025302;28;20211;-75
2022/05/28 10:30:39;;;;;;;3.70;1.33;;;;;;;21.51;53.54;100683.22;5025848;28;20195;-74
2022/05/28 10:33:08;;;;;;;1.73;1.00;;;;;;;21.66;53.58;100672.91;5023163;28;20263;-75
2022/05/28 10:35:34;;;;;;;2.23;1.30;;;;;;;21.65;53.20;100679.09;5034668;28;20188;-73
2022/05/28 10:38:11;;;;;;;4.03;1.37;;;;;;;21.62;52.79;100673.06;5020412;28;20231;-75
2022/05/28 10:40:58;;;;;;;5.53;1.60;;;;;;;21.77;53.43;100662.69;5024365;28;20230;-75
2022/05/28 10:43:26;;;;;;;2.33;1.00;;;;;;;21.76;54.11;100661.84;5025862;28;20211;-75
2022/05/28 10:46:11;;;;;;;2.47;1.13;;;;;;;21.74;54.41;100658.44;5028244;28;20191;-75
2022/05/28 10:49:02;;;;;;;1.77;1.20;;;;;;;21.80;54.38;100659.03;5033540;28;20245;-75
2022/05/28 10:51:49;;;;;;;1.70;1.10;;;;;;;21.90;54.50;100660.28;5023075;28;20206;-75
2022/05/28 10:54:20;;;;;;;1.77;1.00;;;;;;;22.13;54.62;100656.47;5024425;28;20201;-77
2022/05/28 10:56:52;;;;;;;2.60;1.03;;;;;;;22.38;54.71;100658.69;5021602;28;20187;-77
2022/05/28 10:59:38;;;;;;;2.70;0.97;;;;;;;22.67;54.82;100651.03;5021017;28;20218;-75
2022/05/28 11:02:06;;;;;;;1.80;0.90;;;;;;;22.85;54.60;100637.75;5024378;28;20266;-76
2022/05/28 11:04:57;;;;;;;2.17;1.20;;;;;;;22.99;54.46;100643.13;5021916;28;20678;-76
2022/05/28 11:07:25;;;;;;;2.50;1.07;;;;;;;23.09;54.61;100632.91;5022531;28;20191;-76
2022/05/28 11:10:15;;;;;;;3.27;1.10;;;;;;;23.09;54.11;100629.44;5023089;28;20252;-76
2022/05/28 11:13:15;;;;;;;3.37;1.50;;;;;;;22.98;53.68;100622.97;5023002;28;20191;-76
2022/05/28 11:16:02;;;;;;;2.27;1.23;;;;;;;22.86;54.40;100626.25;5023629;28;20180;-76
2022/05/28 11:18:41;;;;;;;1.63;0.90;;;;;;;22.81;54.30;100631.81;5019721;28;20214;-76
2022/05/28 11:21:16;;;;;;;1.90;1.03;;;;;;;22.77;54.12;100622.34;5028751;28;20217;-76
2022/05/28 11:24:03;;;;;;;2.47;1.20;;;;;;;22.73;54.30;100614.69;5024792;28;20209;-76
2022/05/28 11:26:49;;;;;;;2.63;1.10;;;;;;;22.73;54.51;100615.56;5032196;28;20285;-76
2022/05/28 11:30:08;;;;;;;1.97;1.10;;;;;;;22.83;54.85;100603.56;5041737;28;20199;-76
2022/05/28 11:32:56;;;;;;;2.17;1.33;;;;;;;23.07;54.07;100597.81;5000807;28;20215;-76
2022/05/28 11:35:29;;;;;;;4.67;1.60;;;;;;;23.32;53.59;100593.81;4997142;28;20279;-76
2022/05/28 11:38:16;;;;;;;2.47;1.37;;;;;;;23.39;53.40;100595.16;5027514;28;20219;-76
2022/05/28 11:40:51;;;;;;;2.30;1.20;;;;;;;23.50;53.18;100586.63;5054121;28;20606;-76